Time;durP1;ratioP1;P1;durP2;ratioP2;P2;SDS_P1;SDS_P2;PMS_P1;PMS_P2;Temp;Humidity;BMP_temperature;BMP_pressure;BME280_temperature;BME280_humidity;BME280_pressure;Samples;Min_cycle;Max_cycle;Signal;HPM_P1;HPM_P2
2021/12/20 00:00:18;;;;;;;;;;;0.70;99.90;1.20;100364.00;;;;338670;28;89785;-94
2021/12/20 00:00:30;;;;;;;;;;;0.60;99.90;1.20;100372.00;;;;339444;28;83354;-94
2021/12/20 00:00:42;;;;;;;;;;;0.60;99.90;1.30;100375.00;;;;340237;28;88484;-94
2021/12/20 00:00:54;;;;;;;;;;;0.60;99.90;1.30;100375.00;;;;343272;28;82602;-94
2021/12/20 00:01:07;;;;;;;;;;;0.60;99.90;1.40;100370.00;;;;340009;28;86622;-95
2021/12/20 00:01:19;;;;;;;;;;;0.60;99.90;1.40;100371.00;;;;338496;28;82511;-92
2021/12/20 00:01:31;;;;;;;;;;;0.60;99.90;1.40;100375.00;;;;340187;28;89015;-94
2021/12/20 00:01:43;;;;;;;;;;;0.60;99.90;1.40;100377.00;;;;341013;28;83422;-94
2021/12/20 00:01:55;;;;;;;;;;;0.60;99.90;1.40;100372.00;;;;338922;28;88787;-95
2021/12/20 00:02:08;;;;;;;;;;;0.70;99.90;1.30;100364.00;;;;340501;28;82639;-93
2021/12/20 00:02:19;;;;;;;;;;;0.70;99.90;1.30;100368.00;;;;337054;28;92054;-94
2021/12/20 00:02:32;;;;;;;;;;;0.70;99.90;1.30;100371.00;;;;339337;28;83465;-94
2021/12/20 00:02:45;;;;;;;;;;;0.70;99.90;1.30;100367.00;;;;341506;28;88309;-94
2021/12/20 00:02:59;;;;;;;;;;;0.70;99.90;1.30;100378.00;;;;340448;28;83308;-93
2021/12/20 00:03:11;;;;;;;;;;;0.70;99.90;1.30;100372.00;;;;338849;28;90546;-94
2021/12/20 00:03:22;;;;;;;;;;;0.70;99.90;1.30;100372.00;;;;340694;28;83439;-94
2021/12/20 00:03:34;;;;;;;;;;;0.70;99.90;1.40;100376.00;;;;339774;28;93098;-94
2021/12/20 00:03:46;;;;;;;;;;;0.70;99.90;1.40;100372.00;;;;338095;28;83346;-93
2021/12/20 00:03:58;;;;;;;;;;;0.70;99.90;1.40;100370.00;;;;340321;28;89060;-93
2021/12/20 00:04:10;;;;;;;;;;;0.70;99.90;1.50;100368.00;;;;341435;28;82538;-94
2021/12/20 00:04:22;;;;;;;;;;;0.70;99.90;1.50;100372.00;;;;338727;28;88267;-93
2021/12/20 00:04:34;;;;;;;;;;;0.70;99.90;1.40;100372.00;;;;338007;28;83349;-94
2021/12/20 00:04:50;;;;;;;;;;;0.70;99.90;1.30;100371.00;;;;339920;28;91870;-94
2021/12/20 00:05:03;;;;;;;;;;;0.70;99.90;1.30;100367.00;;;;339412;28;83375;-93
2021/12/20 00:05:15;;;;;;;;;;;0.70;99.90;1.40;100370.00;;;;339492;28;88048;-93
2021/12/20 00:05:27;;;;;;;;;;;0.70;99.90;1.50;100367.00;;;;339166;28;82439;-94
2021/12/20 00:05:39;;;;;;;;;;;0.70;99.90;1.50;100372.00;;;;338773;28;89432;-93
2021/12/20 00:05:51;;;;;;;;;;;0.70;99.90;1.40;100376.00;;;;336733;28;83242;-94
2021/12/20 00:06:03;;;;;;;;;;;0.70;99.90;1.40;100362.00;;;;335955;28;89692;-94
2021/12/20 00:06:14;;;;;;;;;;;0.70;99.90;1.30;100362.00;;;;338910;28;83519;-94
2021/12/20 00:06:26;;;;;;;;;;;0.70;99.90;1.20;100368.00;;;;336318;28;88399;-93
2021/12/20 00:06:38;;;;;;;;;;;0.70;99.90;1.20;100366.00;;;;339037;28;83450;-94
2021/12/20 00:06:50;;;;;;;;;;;0.70;99.90;1.30;100363.00;;;;338811;28;89500;-94
2021/12/20 00:07:02;;;;;;;;;;;0.70;99.90;1.40;100367.00;;;;339134;28;83682;-94
2021/12/20 00:07:13;;;;;;;;;;;0.70;99.90;1.40;100370.00;;;;338418;28;89499;-94
2021/12/20 00:07:25;;;;;;;;;;;0.70;99.90;1.30;100366.00;;;;337719;28;83319;-93
2021/12/20 00:07:37;;;;;;;;;;;0.70;99.90;1.30;100366.00;;;;338762;28;90180;-94
2021/12/20 00:07:49;;;;;;;;;;;0.70;99.90;1.30;100362.00;;;;341821;28;83644;-94
2021/12/20 00:08:01;;;;;;;;;;;0.60;99.90;1.30;100373.00;;;;341549;28;90800;-93
2021/12/20 00:08:12;;;;;;;;;;;0.70;99.90;1.30;100373.00;;;;339982;28;83420;-94
2021/12/20 00:08:24;;;;;;;;;;;0.60;99.90;1.30;100370.00;;;;340107;28;90549;-94
2021/12/20 00:08:36;;;;;;;;;;;0.70;99.90;1.30;100375.00;;;;340706;28;82571;-93
2021/12/20 00:08:48;;;;;;;;;;;0.60;99.90;1.30;100362.00;;;;338479;28;87930;-93
2021/12/20 00:09:00;;;;;;;;;;;0.60;99.90;1.40;100369.00;;;;339400;28;82303;-93
2021/12/20 00:09:13;;;;;;;;;;;0.60;99.90;1.40;100366.00;;;;340013;28;88812;-93
2021/12/20 00:09:24;;;;;;;;;;;0.70;99.90;1.30;100375.00;;;;336622;28;83421;-93
2021/12/20 00:09:36;;;;;;;;;;;0.70;99.90;1.40;100370.00;;;;338752;28;91418;-94
2021/12/20 00:09:48;;;;;;;;;;;0.60;99.90;1.40;100360.00;;;;338012;28;83232;-93
2021/12/20 00:10:00;;;;;;;;;;;0.70;99.90;1.30;100363.00;;;;336218;28;89321;-93
2021/12/20 00:10:14;;;;;;;;;;;0.60;99.90;1.20;100368.00;;;;339031;28;83616;-93
2021/12/20 00:10:25;;;;;;;;;;;0.60;99.90;1.10;100369.00;;;;338903;28;88022;-94
2021/12/20 00:10:37;;;;;;;;;;;0.60;99.90;1.00;100373.00;;;;337806;28;82461;-94
2021/12/20 00:10:49;;;;;;;;;;;0.60;99.90;1.00;100367.00;;;;341318;28;91673;-94
2021/12/20 00:11:01;;;;;;;;;;;0.60;99.90;1.20;100370.00;;;;342111;28;82387;-94
2021/12/20 00:11:13;;;;;;;;;;;0.60;99.90;1.30;100358.00;;;;339657;28;89849;-93
2021/12/20 00:11:25;;;;;;;;;;;0.60;99.90;1.30;100362.00;;;;339331;28;83283;-94
2021/12/20 00:11:36;;;;;;;;;;;0.60;99.90;1.30;100365.00;;;;338885;28;90441;-93
2021/12/20 00:11:48;;;;;;;;;;;0.60;99.90;1.40;100372.00;;;;338059;28;83406;-94
2021/12/20 00:12:00;;;;;;;;;;;0.60;99.90;1.30;100364.00;;;;338867;28;88666;-92
2021/12/20 00:12:12;;;;;;;;;;;0.60;99.90;1.40;100367.00;;;;336292;28;83443;-94
2021/12/20 00:12:23;;;;;;;;;;;0.60;99.90;1.40;100364.00;;;;336249;28;88307;-94
2021/12/20 00:12:41;;;;;;;;;;;0.60;99.90;1.30;100355.00;;;;337729;28;82600;-92
2021/12/20 00:12:53;;;;;;;;;;;0.60;99.90;1.20;100370.00;;;;338742;28;91546;-94
2021/12/20 00:13:05;;;;;;;;;;;0.60;99.90;1.10;100365.00;;;;337794;28;83468;-93
2021/12/20 00:13:17;;;;;;;;;;;0.60;99.90;1.10;100364.00;;;;338459;28;90935;-94
2021/12/20 00:13:28;;;;;;;;;;;0.60;99.90;1.10;100363.00;;;;339193;28;83492;-94
2021/12/20 00:13:40;;;;;;;;;;;0.60;99.90;1.20;100365.00;;;;339965;28;92807;-93
2021/12/20 00:13:52;;;;;;;;;;;0.60;99.90;1.30;100366.00;;;;340410;28;83698;-93
2021/12/20 00:14:04;;;;;;;;;;;0.60;99.90;1.30;100359.00;;;;337390;28;90427;-94
2021/12/20 00:14:15;;;;;;;;;;;0.60;99.90;1.30;100361.00;;;;341448;28;82438;-93
2021/12/20 00:14:27;;;;;;;;;;;0.60;99.90;1.30;100359.00;;;;341562;28;87972;-94
2021/12/20 00:14:39;;;;;;;;;;;0.60;99.90;1.30;100360.00;;;;339205;28;83570;-95
2021/12/20 00:14:51;;;;;;;;;;;0.60;99.90;1.20;100364.00;;;;341611;28;88137;-94
2021/12/20 00:15:03;;;;;;;;;;;0.60;99.90;1.20;100357.00;;;;341553;28;83320;-94
2021/12/20 00:15:17;;;;;;;;;;;0.60;99.90;1.10;100360.00;;;;340400;28;89559;-94
2021/12/20 00:15:28;;;;;;;;;;;0.60;99.90;1.20;100360.00;;;;340428;28;83356;-93
2021/12/20 00:15:40;;;;;;;;;;;0.60;99.90;1.10;100357.00;;;;339958;28;89272;-93
2021/12/20 00:15:52;;;;;;;;;;;0.60;99.90;1.10;100355.00;;;;339287;28;82646;-94
2021/12/20 00:16:04;;;;;;;;;;;0.60;99.90;1.10;100361.00;;;;340187;28;88218;-93
2021/12/20 00:16:16;;;;;;;;;;;0.60;99.90;1.10;100364.00;;;;340206;28;82572;-94
2021/12/20 00:16:28;;;;;;;;;;;0.60;99.90;1.10;100362.00;;;;337429;28;90395;-93
2021/12/20 00:16:40;;;;;;;;;;;0.60;99.90;1.10;100365.00;;;;339516;28;83445;-92
2021/12/20 00:16:51;;;;;;;;;;;0.60;99.90;1.10;100366.00;;;;340078;28;90129;-94
2021/12/20 00:17:03;;;;;;;;;;;0.60;99.90;1.10;100356.00;;;;339261;28;82427;-94
2021/12/20 00:17:15;;;;;;;;;;;0.60;99.90;1.10;100360.00;;;;337928;28;90026;-94
2021/12/20 00:17:27;;;;;;;;;;;0.60;99.90;1.00;100365.00;;;;338029;28;82661;-94
2021/12/20 00:17:38;;;;;;;;;;;0.50;99.90;1.00;100356.00;;;;337447;28;89624;-94
2021/12/20 00:17:50;;;;;;;;;;;0.50;99.90;1.00;100368.00;;;;336558;28;83559;-94
2021/12/20 00:18:03;;;;;;;;;;;0.50;99.90;1.10;100354.00;;;;338717;28;90097;-94
2021/12/20 00:18:15;;;;;;;;;;;0.50;99.90;1.20;100364.00;;;;336699;28;83532;-94
2021/12/20 00:18:27;;;;;;;;;;;0.50;99.90;1.20;100364.00;;;;336004;28;90335;-94
2021/12/20 00:18:39;;;;;;;;;;;0.50;99.90;1.20;100359.00;;;;338006;28;82362;-94
2021/12/20 00:18:51;;;;;;;;;;;0.50;99.90;1.20;100359.00;;;;338961;28;89395;-95
2021/12/20 00:19:04;;;;;;;;;;;0.50;99.90;1.20;100351.00;;;;333968;29;83326;-94
2021/12/20 00:19:16;;;;;;;;;;;0.50;99.90;1.20;100361.00;;;;334396;29;88025;-94
2021/12/20 00:19:28;;;;;;;;;;;0.50;99.90;1.10;100355.00;;;;335821;28;82478;-94
2021/12/20 00:19:39;;;;;;;;;;;0.50;99.90;1.20;100352.00;;;;336052;28;89619;-93
2021/12/20 00:19:51;;;;;;;;;;;0.50;99.90;1.20;100358.00;;;;337579;28;82614;-93
2021/12/20 00:20:04;;;;;;;;;;;0.60;99.90;1.10;100357.00;;;;337333;28;88313;-94
2021/12/20 00:20:17;;;;;;;;;;;0.50;99.90;1.10;100354.00;;;;336859;28;82386;-94
2021/12/20 00:20:29;;;;;;;;;;;0.60;99.90;1.10;100357.00;;;;337488;28;89370;-94
2021/12/20 00:20:40;;;;;;;;;;;0.50;99.90;1.20;100359.00;;;;336461;28;82310;-93
2021/12/20 00:20:52;;;;;;;;;;;0.60;99.90;1.20;100345.00;;;;341339;28;89764;-94
2021/12/20 00:21:04;;;;;;;;;;;0.60;99.90;1.30;100356.00;;;;337797;28;83485;-93
2021/12/20 00:21:16;;;;;;;;;;;0.60;99.90;1.30;100362.00;;;;337464;28;88746;-94
2021/12/20 00:21:28;;;;;;;;;;;0.60;99.90;1.20;100355.00;;;;337782;28;82258;-93
2021/12/20 00:21:40;;;;;;;;;;;0.60;99.90;1.10;100346.00;;;;334725;29;89424;-93
2021/12/20 00:21:52;;;;;;;;;;;0.60;99.90;1.00;100353.00;;;;336412;28;83468;-94
2021/12/20 00:22:04;;;;;;;;;;;0.60;99.90;1.20;100347.00;;;;337388;28;88650;-95
2021/12/20 00:22:15;;;;;;;;;;;0.50;99.90;1.20;100351.00;;;;334540;28;83588;-94
2021/12/20 00:22:27;;;;;;;;;;;0.60;99.90;1.20;100350.00;;;;337269;28;91233;-94
2021/12/20 00:22:39;;;;;;;;;;;0.50;99.90;1.20;100352.00;;;;336687;28;82458;-95
2021/12/20 00:22:51;;;;;;;;;;;0.50;99.90;1.20;100347.00;;;;337200;28;91696;-93
2021/12/20 00:23:04;;;;;;;;;;;0.50;99.90;1.10;100352.00;;;;340481;28;83445;-94
2021/12/20 00:23:16;;;;;;;;;;;0.50;99.90;1.10;100357.00;;;;340093;28;89735;-94
2021/12/20 00:23:28;;;;;;;;;;;0.50;99.90;1.20;100348.00;;;;340301;28;82522;-93
2021/12/20 00:23:40;;;;;;;;;;;0.50;99.90;1.30;100356.00;;;;338700;28;90712;-94
2021/12/20 00:23:52;;;;;;;;;;;0.50;99.90;1.40;100359.00;;;;339186;28;83369;-94
2021/12/20 00:24:04;;;;;;;;;;;0.50;99.90;1.40;100354.00;;;;340042;28;89809;-94
2021/12/20 00:24:18;;;;;;;;;;;0.60;99.90;1.40;100354.00;;;;340493;28;82352;-94
2021/12/20 00:24:30;;;;;;;;;;;0.60;99.90;1.40;100354.00;;;;339809;28;92277;-94
2021/12/20 00:24:42;;;;;;;;;;;0.60;99.90;1.20;100349.00;;;;340615;28;82146;-94
2021/12/20 00:24:53;;;;;;;;;;;0.60;99.90;1.20;100354.00;;;;338706;28;89697;-94
2021/12/20 00:25:06;;;;;;;;;;;0.60;99.90;1.20;100350.00;;;;339089;28;83118;-94
2021/12/20 00:25:18;;;;;;;;;;;0.60;99.90;1.20;100361.00;;;;338376;28;89011;-94
2021/12/20 00:25:30;;;;;;;;;;;0.60;99.90;1.10;100353.00;;;;339046;28;83455;-94
2021/12/20 00:25:46;;;;;;;;;;;0.60;99.90;1.20;100354.00;;;;340489;28;91996;-93
2021/12/20 00:25:57;;;;;;;;;;;0.60;99.90;1.30;100353.00;;;;339225;28;83230;-94
2021/12/20 00:26:09;;;;;;;;;;;0.60;99.90;1.30;100359.00;;;;341226;28;91408;-94
2021/12/20 00:26:21;;;;;;;;;;;0.60;99.90;1.30;100349.00;;;;339128;28;83187;-94
2021/12/20 00:26:33;;;;;;;;;;;0.60;99.90;1.30;100349.00;;;;337299;28;91742;-93
2021/12/20 00:26:45;;;;;;;;;;;0.60;99.90;1.40;100356.00;;;;337858;28;82246;-94
2021/12/20 00:26:57;;;;;;;;;;;0.60;99.90;1.40;100362.00;;;;336179;28;89034;-94
2021/12/20 00:27:11;;;;;;;;;;;0.60;99.90;1.40;100356.00;;;;338934;28;83325;-95
2021/12/20 00:27:23;;;;;;;;;;;0.60;99.90;1.40;100362.00;;;;337340;28;90104;-93
2021/12/20 00:27:35;;;;;;;;;;;0.60;99.90;1.40;100357.00;;;;337829;28;83565;-94
2021/12/20 00:27:46;;;;;;;;;;;0.60;99.90;1.40;100360.00;;;;337423;28;89443;-94
2021/12/20 00:28:00;;;;;;;;;;;0.70;99.90;1.40;100361.00;;;;337911;28;83131;-94
2021/12/20 00:28:12;;;;;;;;;;;0.60;99.90;1.40;100354.00;;;;339655;28;87293;-93
2021/12/20 00:28:24;;;;;;;;;;;0.70;99.90;1.50;100358.00;;;;338714;28;82234;-94
2021/12/20 00:28:37;;;;;;;;;;;0.70;99.90;1.50;100351.00;;;;337472;28;88477;-94
2021/12/20 00:28:48;;;;;;;;;;;0.70;99.90;1.50;100353.00;;;;340356;28;82423;-94
2021/12/20 00:29:00;;;;;;;;;;;0.70;99.90;1.60;100362.00;;;;339582;28;91763;-94
2021/12/20 00:29:13;;;;;;;;;;;0.70;99.90;1.50;100349.00;;;;340121;28;83381;-94
2021/12/20 00:29:25;;;;;;;;;;;0.70;99.90;1.50;100360.00;;;;340163;28;88327;-94
2021/12/20 00:29:36;;;;;;;;;;;0.70;99.90;1.30;100353.00;;;;341735;27;83362;-93
2021/12/20 00:29:48;;;;;;;;;;;0.70;99.90;1.20;100353.00;;;;341249;28;92900;-94
2021/12/20 00:30:00;;;;;;;;;;;0.70;99.90;1.20;100348.00;;;;339008;28;83502;-93
2021/12/20 00:30:12;;;;;;;;;;;0.70;99.90;1.20;100355.00;;;;338766;28;88077;-95
2021/12/20 00:30:24;;;;;;;;;;;0.70;99.90;1.10;100351.00;;;;340582;28;83399;-94
2021/12/20 00:30:36;;;;;;;;;;;0.70;99.90;1.20;100357.00;;;;340108;28;87154;-94
2021/12/20 00:30:48;;;;;;;;;;;0.60;99.90;1.20;100353.00;;;;339188;28;83387;-94
2021/12/20 00:30:59;;;;;;;;;;;0.70;99.90;1.30;100351.00;;;;340070;28;88875;-94
2021/12/20 00:31:11;;;;;;;;;;;0.60;99.90;1.40;100357.00;;;;340384;28;83440;-93
2021/12/20 00:31:23;;;;;;;;;;;0.60;99.90;1.40;100356.00;;;;339750;28;88271;-94
2021/12/20 00:31:35;;;;;;;;;;;0.70;99.90;1.30;100353.00;;;;337790;28;82603;-94
2021/12/20 00:31:46;;;;;;;;;;;0.70;99.90;1.40;100356.00;;;;341123;28;88964;-95
2021/12/20 00:31:58;;;;;;;;;;;0.70;99.90;1.40;100357.00;;;;340548;28;82460;-94
2021/12/20 00:32:10;;;;;;;;;;;0.70;99.90;1.50;100351.00;;;;339617;28;89944;-94
2021/12/20 00:32:22;;;;;;;;;;;0.70;99.90;1.50;100358.00;;;;339128;28;83910;-94
2021/12/20 00:32:33;;;;;;;;;;;0.70;99.90;1.50;100348.00;;;;338596;28;87318;-95
2021/12/20 00:32:45;;;;;;;;;;;0.70;99.90;1.50;100352.00;;;;340481;28;83413;-93
2021/12/20 00:32:57;;;;;;;;;;;0.70;99.90;1.50;100356.00;;;;339957;28;91756;-94
2021/12/20 00:33:09;;;;;;;;;;;0.80;99.90;1.30;100350.00;;;;337730;28;83515;-94
2021/12/20 00:33:21;;;;;;;;;;;0.80;99.90;1.40;100350.00;;;;337455;28;88017;-93
2021/12/20 00:33:34;;;;;;;;;;;0.80;99.90;1.50;100350.00;;;;339164;28;83528;-93
2021/12/20 00:33:45;;;;;;;;;;;0.80;99.90;1.50;100355.00;;;;338709;28;90569;-94
2021/12/20 00:33:57;;;;;;;;;;;0.80;99.90;1.40;100351.00;;;;340517;28;83196;-94
2021/12/20 00:34:09;;;;;;;;;;;0.80;99.90;1.40;100356.00;;;;337121;28;88821;-94
2021/12/20 00:34:21;;;;;;;;;;;0.80;99.90;1.40;100359.00;;;;339505;28;83449;-93
2021/12/20 00:34:35;;;;;;;;;;;0.80;99.90;1.50;100348.00;;;;338726;28;90745;-94
2021/12/20 00:34:47;;;;;;;;;;;0.80;99.90;1.40;100346.00;;;;339008;28;83433;-95
2021/12/20 00:34:59;;;;;;;;;;;0.80;99.90;1.40;100356.00;;;;339732;28;87934;-94
2021/12/20 00:35:13;;;;;;;;;;;0.80;99.90;1.50;100351.00;;;;340210;28;83541;-94
2021/12/20 00:35:25;;;;;;;;;;;0.80;99.90;1.50;100351.00;;;;341616;28;86571;-93
2021/12/20 00:35:37;;;;;;;;;;;0.80;99.90;1.50;100352.00;;;;340538;28;83270;-94
2021/12/20 00:35:49;;;;;;;;;;;0.80;99.90;1.40;100351.00;;;;340052;28;88731;-95
2021/12/20 00:36:02;;;;;;;;;;;0.80;99.90;1.50;100351.00;;;;341836;28;83434;-93
2021/12/20 00:36:21;;;;;;;;;;;0.80;99.90;1.50;100353.00;;;;341049;28;88525;-93
2021/12/20 00:36:33;;;;;;;;;;;0.80;99.90;1.50;100345.00;;;;340483;28;82350;-94
2021/12/20 00:36:45;;;;;;;;;;;0.80;99.90;1.50;100349.00;;;;338843;28;87830;-93
2021/12/20 00:37:03;;;;;;;;;;;0.80;99.90;1.50;100346.00;;;;340391;28;83283;-94
2021/12/20 00:40:21;;;;;;;;;;;0.90;99.90;1.60;100337.00;;;;334025;28;83364;-95
2021/12/20 00:40:33;;;;;;;;;;;0.90;99.90;1.60;100345.00;;;;335794;28;88363;-93
2021/12/20 00:40:45;;;;;;;;;;;0.90;99.90;1.60;100333.00;;;;334937;28;83332;-94
2021/12/20 00:40:57;;;;;;;;;;;0.90;99.90;1.50;100337.00;;;;334667;28;90797;-93
2021/12/20 00:41:09;;;;;;;;;;;0.80;99.90;1.50;100346.00;;;;341689;28;83474;-94
2021/12/20 00:41:20;;;;;;;;;;;0.80;99.90;1.40;100341.00;;;;341510;28;87223;-94
2021/12/20 00:41:32;;;;;;;;;;;0.90;99.90;1.40;100345.00;;;;336525;28;83414;-94
2021/12/20 00:41:44;;;;;;;;;;;0.90;99.90;1.40;100346.00;;;;335866;28;89726;-93
2021/12/20 00:41:56;;;;;;;;;;;0.90;99.90;1.30;100342.00;;;;337817;28;83351;-94
2021/12/20 00:42:08;;;;;;;;;;;0.80;99.90;1.40;100339.00;;;;334616;29;89118;-94
2021/12/20 00:42:20;;;;;;;;;;;0.80;99.90;1.50;100344.00;;;;336277;28;83293;-94
2021/12/20 00:42:31;;;;;;;;;;;0.90;99.90;1.60;100337.00;;;;338757;28;88271;-94
2021/12/20 00:42:43;;;;;;;;;;;0.90;99.90;1.50;100334.00;;;;338829;28;83297;-93
2021/12/20 00:42:57;;;;;;;;;;;0.90;99.90;1.50;100342.00;;;;335971;28;88503;-94
2021/12/20 00:43:09;;;;;;;;;;;0.90;99.90;1.40;100331.00;;;;335982;28;83299;-94
2021/12/20 00:43:21;;;;;;;;;;;0.90;99.90;1.40;100338.00;;;;333343;28;90397;-93
2021/12/20 00:43:33;;;;;;;;;;;0.90;99.90;1.40;100338.00;;;;335221;29;82300;-94
2021/12/20 00:43:44;;;;;;;;;;;0.90;99.90;1.40;100338.00;;;;337004;28;89059;-94
2021/12/20 00:43:56;;;;;;;;;;;0.80;99.90;1.40;100338.00;;;;337578;28;83248;-94
2021/12/20 00:44:19;;;;;;;;;;;0.80;99.90;1.40;100343.00;;;;336044;28;90251;-93
2021/12/20 00:44:37;;;;;;;;;;;0.90;99.90;1.40;100343.00;;;;336559;28;82504;-94
2021/12/20 00:44:49;;;;;;;;;;;0.80;99.90;1.30;100338.00;;;;335836;28;91025;-94
2021/12/20 00:45:01;;;;;;;;;;;0.80;99.90;1.30;100335.00;;;;335005;28;83571;-94
2021/12/20 00:45:13;;;;;;;;;;;0.80;99.90;1.40;100334.00;;;;333541;29;88680;-95
2021/12/20 00:45:33;;;;;;;;;;;0.80;99.90;1.50;100336.00;;;;337632;28;83261;-94
2021/12/20 00:45:45;;;;;;;;;;;0.80;99.90;1.40;100339.00;;;;337222;28;91494;-95
2021/12/20 00:45:57;;;;;;;;;;;0.80;99.90;1.20;100331.00;;;;335179;29;83195;-95
2021/12/20 00:46:08;;;;;;;;;;;0.80;99.90;1.20;100337.00;;;;334963;28;87974;-94
2021/12/20 00:46:20;;;;;;;;;;;0.80;99.90;1.10;100336.00;;;;341894;28;82381;-94
2021/12/20 00:46:32;;;;;;;;;;;0.70;99.90;1.10;100337.00;;;;340143;28;89345;-94
2021/12/20 00:46:43;;;;;;;;;;;0.70;99.90;1.10;100335.00;;;;337984;28;83211;-94
2021/12/20 00:46:55;;;;;;;;;;;0.70;99.90;1.20;100337.00;;;;334741;29;90146;-94
2021/12/20 00:47:07;;;;;;;;;;;0.70;99.90;1.30;100333.00;;;;337754;28;83249;-93
2021/12/20 00:47:19;;;;;;;;;;;0.70;99.90;1.40;100334.00;;;;337324;28;88922;-93
2021/12/20 00:47:30;;;;;;;;;;;0.70;99.90;1.20;100335.00;;;;344558;28;82351;-93
2021/12/20 00:47:42;;;;;;;;;;;0.70;99.90;1.30;100342.00;;;;344298;28;88293;-94
2021/12/20 00:47:54;;;;;;;;;;;0.70;99.90;1.30;100340.00;;;;336452;28;83300;-93
2021/12/20 00:48:06;;;;;;;;;;;0.70;99.90;1.40;100333.00;;;;335993;28;91234;-93
2021/12/20 00:48:21;;;;;;;;;;;0.70;99.90;1.40;100334.00;;;;335181;29;83439;-94
2021/12/20 00:48:33;;;;;;;;;;;0.70;99.90;1.50;100340.00;;;;337216;28;91233;-93
2021/12/20 00:48:45;;;;;;;;;;;0.70;99.90;1.40;100322.00;;;;336437;28;82543;-94
2021/12/20 00:48:57;;;;;;;;;;;0.70;99.90;1.50;100337.00;;;;337210;28;90358;-95
2021/12/20 00:49:09;;;;;;;;;;;0.70;99.90;1.50;100331.00;;;;335792;28;83286;-93
2021/12/20 00:49:21;;;;;;;;;;;0.80;99.90;1.50;100335.00;;;;337085;28;86566;-94
2021/12/20 00:49:33;;;;;;;;;;;0.70;99.90;1.40;100332.00;;;;343083;28;83361;-94
2021/12/20 00:49:45;;;;;;;;;;;0.80;99.90;1.40;100340.00;;;;342511;28;89017;-94
2021/12/20 00:49:57;;;;;;;;;;;0.80;99.90;1.50;100336.00;;;;340729;28;83259;-94
2021/12/20 00:50:10;;;;;;;;;;;0.80;99.90;1.50;100335.00;;;;335709;28;92068;-93
2021/12/20 00:50:22;;;;;;;;;;;0.80;99.90;1.50;100333.00;;;;335020;29;83297;-94
2021/12/20 00:50:34;;;;;;;;;;;0.80;99.90;1.60;100338.00;;;;334764;29;88733;-94
2021/12/20 00:50:46;;;;;;;;;;;0.80;99.90;1.60;100343.00;;;;335094;29;82546;-94
2021/12/20 00:50:58;;;;;;;;;;;0.80;99.90;1.60;100325.00;;;;337440;28;87462;-94
2021/12/20 00:51:10;;;;;;;;;;;0.80;99.90;1.60;100335.00;;;;336408;28;83153;-93
2021/12/20 00:51:21;;;;;;;;;;;0.90;99.90;1.50;100342.00;;;;334495;28;90222;-93
2021/12/20 00:51:33;;;;;;;;;;;0.80;99.90;1.50;100345.00;;;;336507;28;82457;-94
2021/12/20 00:51:45;;;;;;;;;;;0.80;99.90;1.50;100335.00;;;;336145;28;89208;-93
2021/12/20 00:51:57;;;;;;;;;;;0.80;99.90;1.60;100334.00;;;;336670;28;83361;-93
2021/12/20 00:52:08;;;;;;;;;;;0.80;99.90;1.50;100338.00;;;;336718;28;87918;-94
2021/12/20 00:52:20;;;;;;;;;;;0.80;99.90;1.50;100330.00;;;;337393;28;83641;-94
2021/12/20 00:52:32;;;;;;;;;;;0.80;99.90;1.60;100335.00;;;;333668;29;90543;-94
2021/12/20 00:52:44;;;;;;;;;;;0.90;99.90;1.60;100321.00;;;;336756;28;83445;-94
2021/12/20 00:52:56;;;;;;;;;;;0.80;99.90;1.60;100336.00;;;;336380;28;87724;-94
2021/12/20 00:53:08;;;;;;;;;;;0.80;99.90;1.60;100332.00;;;;336544;28;82560;-94
2021/12/20 00:53:20;;;;;;;;;;;0.80;99.90;1.60;100335.00;;;;333754;29;88141;-94
2021/12/20 00:53:32;;;;;;;;;;;0.90;99.90;1.60;100334.00;;;;334036;29;82598;-93
2021/12/20 00:53:44;;;;;;;;;;;0.90;99.90;1.60;100326.00;;;;334977;29;90955;-94
2021/12/20 00:53:55;;;;;;;;;;;0.90;99.90;1.30;100334.00;;;;335540;29;82468;-93
2021/12/20 00:54:07;;;;;;;;;;;0.90;99.90;1.30;100337.00;;;;334663;28;91690;-94
2021/12/20 00:54:19;;;;;;;;;;;0.90;99.90;1.20;100334.00;;;;339477;28;82494;-94
2021/12/20 00:54:31;;;;;;;;;;;0.90;99.90;1.20;100338.00;;;;340311;28;91022;-94
2021/12/20 00:54:43;;;;;;;;;;;0.80;99.90;1.20;100336.00;;;;334036;29;82379;-93
2021/12/20 00:54:54;;;;;;;;;;;0.80;99.90;1.30;100335.00;;;;340414;28;88849;-93
2021/12/20 00:55:07;;;;;;;;;;;0.80;99.90;1.10;100331.00;;;;339311;28;83166;-94
2021/12/20 00:55:19;;;;;;;;;;;0.80;99.90;1.20;100338.00;;;;333578;29;88420;-93
2021/12/20 00:55:31;;;;;;;;;;;0.80;99.90;1.30;100339.00;;;;336561;28;83506;-94
2021/12/20 00:55:43;;;;;;;;;;;0.80;99.90;1.30;100334.00;;;;343569;28;90091;-93
2021/12/20 00:55:55;;;;;;;;;;;0.80;99.90;1.40;100344.00;;;;342242;28;83161;-94
2021/12/20 00:56:07;;;;;;;;;;;0.70;99.90;1.40;100335.00;;;;336130;28;89560;-93
2021/12/20 00:56:19;;;;;;;;;;;0.80;99.90;1.40;100333.00;;;;335233;29;83474;-94
2021/12/20 00:56:30;;;;;;;;;;;0.80;99.90;1.20;100343.00;;;;336298;28;88881;-94
2021/12/20 00:56:42;;;;;;;;;;;0.70;99.90;1.30;100344.00;;;;338052;28;82200;-94
2021/12/20 00:56:54;;;;;;;;;;;0.70;99.90;1.40;100340.00;;;;334936;29;87932;-94
2021/12/20 00:57:06;;;;;;;;;;;0.70;99.90;1.30;100339.00;;;;336688;28;83491;-95
2021/12/20 00:57:18;;;;;;;;;;;0.70;99.90;1.30;100342.00;;;;337406;28;91698;-93
2021/12/20 00:57:30;;;;;;;;;;;0.70;99.90;1.40;100345.00;;;;336481;28;82461;-93
2021/12/20 00:57:43;;;;;;;;;;;0.80;99.90;1.40;100340.00;;;;336211;28;89811;-94
2021/12/20 00:57:56;;;;;;;;;;;0.80;99.90;1.30;100339.00;;;;337879;28;83312;-94
2021/12/20 00:58:08;;;;;;;;;;;0.70;99.90;1.40;100334.00;;;;336729;28;87916;-94
2021/12/20 00:58:20;;;;;;;;;;;0.70;99.90;1.30;100335.00;;;;337498;28;83519;-94
2021/12/20 00:58:32;;;;;;;;;;;0.80;99.90;1.20;100336.00;;;;334728;28;92968;-93
2021/12/20 00:58:44;;;;;;;;;;;0.70;99.90;1.30;100335.00;;;;335822;28;83220;-94
2021/12/20 00:58:56;;;;;;;;;;;0.70;99.90;1.40;100346.00;;;;335064;29;87776;-94
2021/12/20 00:59:08;;;;;;;;;;;0.70;99.90;1.40;100340.00;;;;335326;28;83529;-94
2021/12/20 00:59:20;;;;;;;;;;;0.70;99.90;1.40;100339.00;;;;336246;28;89700;-93
2021/12/20 00:59:32;;;;;;;;;;;0.70;99.90;1.40;100335.00;;;;336560;28;82523;-94
2021/12/20 00:59:44;;;;;;;;;;;0.80;99.90;1.50;100341.00;;;;336318;28;89123;-95
2021/12/20 00:59:56;;;;;;;;;;;0.80;99.90;1.50;100342.00;;;;336701;28;83594;-94
2021/12/20 01:00:09;;;;;;;;;;;0.80;99.90;1.40;100338.00;;;;340393;28;88104;-94
2021/12/20 01:00:28;;;;;;;;;;;0.80;99.90;1.50;100339.00;;;;344905;28;82385;-95
2021/12/20 01:00:45;;;;;;;;;;;0.80;99.90;1.50;100345.00;;;;341737;28;89487;-94
2021/12/20 01:00:58;;;;;;;;;;;0.80;99.90;1.50;100339.00;;;;336385;28;82559;-93
2021/12/20 01:01:10;;;;;;;;;;;0.80;99.90;1.50;100340.00;;;;336428;28;87242;-94
2021/12/20 01:01:22;;;;;;;;;;;0.80;99.90;1.40;100343.00;;;;336298;29;83326;-94
2021/12/20 01:01:34;;;;;;;;;;;0.80;99.90;1.50;100341.00;;;;334572;28;91830;-94
2021/12/20 01:01:46;;;;;;;;;;;0.80;99.90;1.50;100341.00;;;;336494;28;82325;-96
2021/12/20 01:01:58;;;;;;;;;;;0.80;99.90;1.40;100339.00;;;;338611;28;92143;-93
2021/12/20 01:02:09;;;;;;;;;;;0.80;99.90;1.50;100338.00;;;;337650;28;83233;-94
2021/12/20 01:02:21;;;;;;;;;;;0.80;99.90;1.40;100346.00;;;;335004;29;88261;-94
2021/12/20 01:02:33;;;;;;;;;;;0.80;99.90;1.40;100338.00;;;;336510;28;82729;-93
2021/12/20 01:02:45;;;;;;;;;;;0.80;99.90;1.50;100347.00;;;;335861;28;91532;-94
2021/12/20 01:02:57;;;;;;;;;;;0.80;99.90;1.50;100337.00;;;;335476;28;83491;-93
2021/12/20 01:03:09;;;;;;;;;;;0.80;99.90;1.50;100342.00;;;;334910;29;89372;-94
2021/12/20 01:03:21;;;;;;;;;;;0.80;99.90;1.50;100342.00;;;;333668;28;83558;-94
2021/12/20 01:03:33;;;;;;;;;;;0.80;99.90;1.40;100346.00;;;;336206;28;89556;-94
2021/12/20 01:03:45;;;;;;;;;;;0.80;99.90;1.40;100350.00;;;;336622;28;82586;-94
2021/12/20 01:03:57;;;;;;;;;;;0.80;99.90;1.40;100345.00;;;;337376;28;90905;-94
2021/12/20 01:04:09;;;;;;;;;;;0.80;99.90;1.40;100340.00;;;;332798;29;83565;-94
2021/12/20 01:04:21;;;;;;;;;;;0.80;99.90;1.50;100348.00;;;;336134;28;88067;-94
2021/12/20 01:04:33;;;;;;;;;;;0.80;99.90;1.50;100348.00;;;;336221;28;82418;-94